Terminal Aerodrome Forecast
Issued by NWS

Home | Current Version | Previous Version | Text Only | Print | Product List | Glossary On
Versions: 1 2 3 4 5 6 7 8 9 10 11 12 13 14 15 16 17
327
FTUS42 KMLB 281727
TAFFPR
TAF
KFPR 281727Z 2818/2918 10010KT P6SM SKC
     FM290100 17004KT P6SM SKC
     FM291400 32006KT P6SM FEW025=

USA.gov is the U.S. government's official web portal to all federal, state and local government web resources and services.